Terminal Aerodrome Forecast
Issued by NWS

Home | Current Version | Previous Version | Text Only | Print | Product List | Glossary On
Versions: 1 2 3 4 5 6 7 8 9 10 11 12 13 14 15 16 17 18
063
FTUS46 KMTR 281128
TAFOAK
TAF
KOAK 281128Z 2812/2918 22008KT P6SM OVC012
     FM281730 26006KT P6SM FEW015
     FM282100 29012KT P6SM FEW020
     FM290400 28013KT P6SM BKN015
     FM291000 26006KT P6SM OVC008=

USA.gov is the U.S. government's official web portal to all federal, state and local government web resources and services.